Time;durP1;ratioP1;P1;durP2;ratioP2;P2;SDS_P1;SDS_P2;PMS_P1;PMS_P2;Temp;Humidity;BMP_temperature;BMP_pressure;BME280_temperature;BME280_humidity;BME280_pressure;Samples;Min_cycle;Max_cycle;Signal;HPM_P1;HPM_P2
2022/10/10 00:00:38;;;;;;;;;;;11.90;99.90;;;;;;5036090;28;20500;-64
2022/10/10 00:03:04;;;;;;;6.00;3.92;;;11.80;99.90;;;;;;5035441;28;19952;-65
2022/10/10 00:05:30;;;;;;;6.43;3.60;;;11.90;99.90;;;;;;5035401;28;20026;-61
2022/10/10 00:07:56;;;;;;;5.73;3.07;;;11.90;99.90;;;;;;5035601;28;20526;-62
2022/10/10 00:10:22;;;;;;;10.73;3.30;;;11.80;99.90;;;;;;5034527;28;20109;-62
2022/10/10 00:12:47;;;;;;;8.23;3.17;;;11.80;99.90;;;;;;5035401;28;20029;-63
2022/10/10 00:15:14;;;;;;;6.97;3.35;;;11.90;99.90;;;;;;5034942;28;20028;-62
2022/10/10 00:17:42;;;;;;;7.97;3.40;;;11.90;99.90;;;;;;5035066;28;20040;-62
2022/10/10 00:20:12;;;;;;;7.10;3.25;;;11.80;99.90;;;;;;5017270;28;20056;-63
2022/10/10 00:22:38;;;;;;;7.38;4.22;;;11.70;99.90;;;;;;5035447;28;20107;-64
2022/10/10 00:25:05;;;;;;;6.53;3.67;;;11.70;99.90;;;;;;5035254;28;20478;-63
2022/10/10 00:27:30;;;;;;;6.80;3.33;;;11.70;99.90;;;;;;5034828;28;20125;-63
2022/10/10 00:29:57;;;;;;;6.87;3.47;;;11.60;99.90;;;;;;5034627;28;20488;-63
2022/10/10 00:32:22;;;;;;;;;;;11.50;99.90;;;;;;5035212;28;20454;-63
2022/10/10 00:34:48;;;;;;;6.25;3.65;;;11.50;99.90;;;;;;5034698;28;19921;-63
2022/10/10 00:37:13;;;;;;;6.77;3.50;;;11.50;99.90;;;;;;5034612;28;20482;-62
2022/10/10 00:39:39;;;;;;;9.83;3.97;;;11.50;99.90;;;;;;5034761;28;20123;-63
2022/10/10 00:42:05;;;;;;;5.83;3.47;;;11.50;99.90;;;;;;5035013;28;20146;-63
2022/10/10 00:44:30;;;;;;;9.98;4.03;;;11.50;99.90;;;;;;5034385;28;20112;-62
2022/10/10 00:46:56;;;;;;;5.47;3.10;;;11.50;99.90;;;;;;5034325;28;20033;-63
2022/10/10 00:49:26;;;;;;;7.90;3.70;;;11.60;99.90;;;;;;5034324;28;20025;-63
2022/10/10 00:51:54;;;;;;;6.68;3.15;;;11.70;99.90;;;;;;5034280;28;20033;-62
2022/10/10 00:54:23;;;;;;;6.78;3.50;;;11.80;99.90;;;;;;5034298;28;20029;-63
2022/10/10 00:57:02;;;;;;;6.30;3.25;;;11.60;99.90;;;;;;5034357;28;20025;-64
2022/10/10 00:59:31;;;;;;;6.43;3.00;;;11.60;99.90;;;;;;5016236;28;20040;-61
2022/10/10 01:01:57;;;;;;;6.22;2.85;;;11.50;99.90;;;;;;5034025;28;20065;-62
2022/10/10 01:04:32;;;;;;;7.55;4.22;;;11.60;99.90;;;;;;5034353;28;20061;-62
2022/10/10 01:07:00;;;;;;;6.45;3.92;;;11.70;99.90;;;;;;5034209;28;20394;-62
2022/10/10 01:09:27;;;;;;;9.90;4.88;;;11.80;99.90;;;;;;5034123;28;20021;-62
2022/10/10 01:12:11;;;;;;;6.15;3.53;;;11.90;99.90;;;;;;5034203;28;20021;-62
2022/10/10 01:15:08;;;;;;;5.85;2.95;;;11.80;99.90;;;;;;5033601;28;20029;-62
2022/10/10 01:18:00;;;;;;;6.22;3.20;;;11.70;99.90;;;;;;5034215;28;20434;-62
2022/10/10 01:20:49;;;;;;;6.50;2.95;;;11.80;99.90;;;;;;5033741;28;20018;-62
2022/10/10 01:23:45;;;;;;;5.68;3.03;;;12.00;99.90;;;;;;4995087;28;20540;-62
2022/10/10 01:26:23;;;;;;;5.60;3.83;;;11.90;99.90;;;;;;5034115;28;20398;-61
2022/10/10 01:28:59;;;;;;;6.47;3.45;;;11.80;99.90;;;;;;5034495;28;20025;-62
2022/10/10 01:31:25;;;;;;;6.47;3.97;;;11.80;99.90;;;;;;5016231;28;20025;-64
2022/10/10 01:34:07;;;;;;;7.88;3.92;;;11.90;99.90;;;;;;5015949;28;20021;-63
2022/10/10 01:36:58;;;;;;;6.20;3.13;;;12.00;99.90;;;;;;5033946;28;20458;-63
2022/10/10 01:40:04;;;;;;;7.63;3.08;;;12.00;99.90;;;;;;5033685;28;20030;-63
2022/10/10 01:42:53;;;;;;;5.72;3.42;;;12.00;99.90;;;;;;4953627;29;20043;-62
2022/10/10 01:45:19;;;;;;;6.28;3.45;;;12.00;99.90;;;;;;4933917;29;20031;-60
2022/10/10 01:47:46;;;;;;;5.07;3.25;;;12.00;99.90;;;;;;4918906;29;20106;-62
2022/10/10 01:50:18;;;;;;;10.00;4.35;;;12.10;99.90;;;;;;4935067;29;20088;-62
2022/10/10 01:53:02;;;;;;;8.75;4.10;;;12.00;99.90;;;;;;4935998;29;20032;-62
2022/10/10 01:55:42;;;;;;;15.15;7.50;;;12.10;99.90;;;;;;4934462;29;20188;-62
2022/10/10 01:58:16;;;;;;;11.88;6.00;;;12.00;99.90;;;;;;4935181;29;20537;-63
2022/10/10 02:01:05;;;;;;;7.05;3.90;;;12.00;99.90;;;;;;4934546;29;20110;-62
2022/10/10 02:03:37;;;;;;;5.18;3.22;;;11.90;99.90;;;;;;4934928;29;20516;-63
2022/10/10 02:06:06;;;;;;;5.88;3.00;;;11.80;99.90;;;;;;4935623;29;20119;-63
2022/10/10 02:08:39;;;;;;;5.57;3.30;;;12.00;99.90;;;;;;4935428;29;20378;-62
2022/10/10 02:11:08;;;;;;;8.00;3.30;;;12.00;99.90;;;;;;4934404;29;20682;-63
2022/10/10 02:13:51;;;;;;;8.27;3.38;;;12.00;99.90;;;;;;4935102;29;20032;-63
2022/10/10 02:16:28;;;;;;;4.82;3.03;;;11.80;99.90;;;;;;4979240;28;20030;-63
2022/10/10 02:18:58;;;;;;;6.55;3.08;;;11.70;99.90;;;;;;5013812;28;20022;-60
2022/10/10 02:21:24;;;;;;;5.10;3.33;;;11.90;99.90;;;;;;5014109;28;20467;-62
2022/10/10 02:23:52;;;;;;;6.72;3.28;;;11.80;99.90;;;;;;5013759;28;20026;-63
2022/10/10 02:26:20;;;;;;;4.53;3.13;;;11.80;99.90;;;;;;5013320;28;20048;-63
2022/10/10 02:29:09;;;;;;;4.97;3.10;;;11.90;99.90;;;;;;5013337;28;20042;-64
2022/10/10 02:31:40;;;;;;;8.88;3.25;;;11.90;99.90;;;;;;5013874;28;20026;-62
2022/10/10 02:34:12;;;;;;;7.85;3.50;;;11.90;99.90;;;;;;5017471;28;20088;-63
2022/10/10 02:36:40;;;;;;;6.03;3.65;;;11.80;99.90;;;;;;4999722;28;20021;-63
2022/10/10 02:39:06;;;;;;;7.35;3.60;;;11.60;99.90;;;;;;5017670;28;20038;-62
2022/10/10 02:41:33;;;;;;;6.75;3.40;;;11.50;99.90;;;;;;5017884;28;20122;-62
2022/10/10 02:43:59;;;;;;;6.72;3.90;;;11.60;99.90;;;;;;5003699;28;20029;-62
2022/10/10 02:46:24;;;;;;;5.70;3.67;;;11.70;99.90;;;;;;5037235;28;20163;-62
2022/10/10 02:48:50;;;;;;;5.87;3.47;;;11.70;99.90;;;;;;5037006;28;20029;-62
2022/10/10 02:51:16;;;;;;;6.20;3.03;;;11.70;99.90;;;;;;5037046;28;20022;-63
2022/10/10 02:53:42;;;;;;;7.72;3.55;;;11.70;99.90;;;;;;5037147;28;20102;-62
2022/10/10 02:56:07;;;;;;;5.03;3.40;;;11.70;99.90;;;;;;5037447;28;20049;-63
2022/10/10 02:58:33;;;;;;;7.23;3.20;;;11.70;99.90;;;;;;5038808;28;20100;-63
2022/10/10 03:00:58;;;;;;;6.30;3.17;;;11.50;99.90;;;;;;5037395;28;20264;-63
2022/10/10 03:03:24;;;;;;;4.87;3.13;;;11.50;99.90;;;;;;5037602;28;20029;-62
2022/10/10 03:05:50;;;;;;;5.85;3.20;;;11.50;99.90;;;;;;5037852;28;20478;-62
2022/10/10 03:08:16;;;;;;;6.27;3.37;;;11.50;99.90;;;;;;5039116;28;20061;-63
2022/10/10 03:10:52;;;;;;;5.57;2.88;;;11.50;99.90;;;;;;5037745;28;20474;-63
2022/10/10 03:13:17;;;;;;;5.20;3.40;;;11.40;99.90;;;;;;5037090;28;20034;-62
2022/10/10 03:15:43;;;;;;;8.23;3.73;;;11.30;99.90;;;;;;5036392;28;20048;-63
2022/10/10 03:18:08;;;;;;;5.60;3.10;;;11.30;99.90;;;;;;5036695;28;20025;-63
2022/10/10 03:20:34;;;;;;;5.17;3.27;;;11.40;99.90;;;;;;5036699;28;20038;-63
2022/10/10 03:22:59;;;;;;;7.47;3.83;;;11.40;99.90;;;;;;5036443;28;20435;-63
2022/10/10 03:25:25;;;;;;;5.90;3.70;;;11.40;99.90;;;;;;5036861;28;20029;-63
2022/10/10 03:27:50;;;;;;;5.03;2.93;;;11.20;99.90;;;;;;5036803;28;20124;-63
2022/10/10 03:30:16;;;;;;;6.10;3.53;;;11.10;99.90;;;;;;5035783;28;20104;-63
2022/10/10 03:32:41;;;;;;;7.33;3.47;;;11.20;99.90;;;;;;5036607;28;20467;-63
2022/10/10 03:35:07;;;;;;;7.50;3.90;;;11.40;99.90;;;;;;5036561;28;20029;-63
2022/10/10 03:37:33;;;;;;;9.70;3.10;;;11.50;99.90;;;;;;5036009;28;20021;-63
2022/10/10 03:39:58;;;;;;;8.90;3.63;;;11.50;99.90;;;;;;5036266;28;20474;-64
2022/10/10 03:42:23;;;;;;;5.03;3.37;;;11.50;99.90;;;;;;5035817;28;20075;-64
2022/10/10 03:44:49;;;;;;;6.87;3.13;;;11.50;99.90;;;;;;5016675;28;20025;-63
2022/10/10 03:47:15;;;;;;;7.83;3.73;;;11.60;99.90;;;;;;5035619;28;20512;-63
2022/10/10 03:49:40;;;;;;;6.87;3.20;;;11.40;99.90;;;;;;5035839;28;20025;-64
2022/10/10 03:52:05;;;;;;;7.40;3.43;;;11.40;99.90;;;;;;5035764;28;20032;-64
2022/10/10 03:54:31;;;;;;;6.47;3.80;;;11.50;99.90;;;;;;5035440;28;20029;-64
2022/10/10 03:56:56;;;;;;;6.33;3.70;;;11.40;99.90;;;;;;5035595;28;20025;-64
2022/10/10 03:59:22;;;;;;;4.87;3.63;;;11.30;99.90;;;;;;5035240;28;20021;-63
2022/10/10 04:01:48;;;;;;;5.33;3.20;;;11.30;99.90;;;;;;5035669;28;20075;-62
2022/10/10 04:04:13;;;;;;;5.10;3.40;;;11.40;99.90;;;;;;5035674;28;20180;-62
2022/10/10 04:06:39;;;;;;;6.03;3.70;;;11.30;99.90;;;;;;5035273;28;20033;-63
2022/10/10 04:09:04;;;;;;;5.77;3.40;;;11.40;99.90;;;;;;5035299;28;20371;-63
2022/10/10 04:11:30;;;;;;;5.27;3.30;;;11.30;99.90;;;;;;5035420;28;20022;-64
2022/10/10 04:13:56;;;;;;;7.97;3.70;;;11.30;99.90;;;;;;5034898;28;20108;-62
2022/10/10 04:16:21;;;;;;;9.13;3.93;;;11.40;99.90;;;;;;5035167;28;20108;-64
2022/10/10 04:18:47;;;;;;;7.87;4.43;;;11.30;99.90;;;;;;5035015;28;20029;-65
2022/10/10 04:21:12;;;;;;;7.13;3.87;;;11.20;99.90;;;;;;5035062;28;20034;-64
2022/10/10 04:23:40;;;;;;;6.23;3.37;;;11.20;99.90;;;;;;5036104;28;20022;-64
2022/10/10 04:26:05;;;;;;;7.82;4.07;;;11.40;99.90;;;;;;5035199;28;20033;-64
2022/10/10 04:28:31;;;;;;;8.85;3.33;;;11.40;99.90;;;;;;5034902;28;20448;-64
2022/10/10 04:30:56;;;;;;;6.70;3.43;;;11.40;99.90;;;;;;5034584;28;20037;-64
2022/10/10 04:33:22;;;;;;;5.17;3.43;;;11.20;99.90;;;;;;5034735;28;20382;-72
2022/10/10 04:35:49;;;;;;;8.80;3.78;;;11.30;99.90;;;;;;5034715;28;20100;-71
2022/10/10 04:38:14;;;;;;;;;;;11.40;99.90;;;;;;5017302;28;20154;-68
2022/10/10 04:40:40;;;;;;;6.57;3.58;;;11.30;99.90;;;;;;5035288;28;19905;-68
2022/10/10 04:43:06;;;;;;;6.67;3.67;;;11.10;99.90;;;;;;5034588;28;20437;-68
2022/10/10 04:45:31;;;;;;;6.27;3.63;;;11.00;99.90;;;;;;5033727;28;20026;-68
2022/10/10 04:47:57;;;;;;;7.70;3.47;;;11.10;99.90;;;;;;5016919;28;20025;-68
2022/10/10 04:50:22;;;;;;;5.50;3.60;;;11.00;99.90;;;;;;5034563;28;20493;-68
2022/10/10 04:52:48;;;;;;;7.33;3.60;;;11.10;99.90;;;;;;5034169;28;20443;-68
2022/10/10 04:55:14;;;;;;;5.73;3.57;;;11.10;99.90;;;;;;5034036;28;20104;-68
2022/10/10 04:57:39;;;;;;;7.25;3.60;;;11.10;99.90;;;;;;5034015;28;20104;-68
2022/10/10 05:00:05;;;;;;;8.43;3.93;;;11.10;99.90;;;;;;5033860;28;20029;-68
2022/10/10 05:02:31;;;;;;;8.60;3.60;;;11.10;99.90;;;;;;5034856;28;20029;-68
2022/10/10 05:04:57;;;;;;;5.95;3.53;;;11.10;99.90;;;;;;5034118;28;20029;-68
2022/10/10 05:07:23;;;;;;;8.37;4.00;;;11.20;99.90;;;;;;5034130;28;20417;-68
2022/10/10 05:09:49;;;;;;;9.55;4.50;;;11.20;99.90;;;;;;5033909;28;20025;-68
2022/10/10 05:12:15;;;;;;;7.30;3.77;;;11.20;99.90;;;;;;5034249;28;20131;-68
2022/10/10 05:14:41;;;;;;;6.07;3.85;;;11.40;99.90;;;;;;5033859;28;20029;-68
2022/10/10 05:17:06;;;;;;;7.43;3.35;;;11.40;99.90;;;;;;5033637;28;20033;-68
2022/10/10 05:19:32;;;;;;;7.28;3.72;;;11.50;99.90;;;;;;5034087;28;20486;-68
2022/10/10 05:21:57;;;;;;;5.07;3.33;;;11.60;99.90;;;;;;5033976;28;20394;-68
2022/10/10 05:24:23;;;;;;;6.60;3.67;;;11.60;99.90;;;;;;5033883;28;20049;-68
2022/10/10 05:26:49;;;;;;;5.90;3.30;;;11.50;99.90;;;;;;5033487;28;20499;-68
2022/10/10 05:29:14;;;;;;;7.18;4.07;;;11.60;99.90;;;;;;5033283;28;20033;-67
2022/10/10 05:31:40;;;;;;;7.70;4.00;;;11.50;99.90;;;;;;5033579;28;20021;-68
2022/10/10 05:34:05;;;;;;;6.67;3.97;;;11.70;99.90;;;;;;5033628;28;20049;-68
2022/10/10 05:36:31;;;;;;;6.53;4.27;;;11.80;99.90;;;;;;5015765;28;20108;-67
2022/10/10 05:38:56;;;;;;;6.53;3.60;;;11.90;99.90;;;;;;5033447;28;20029;-67
2022/10/10 05:41:22;;;;;;;5.97;3.83;;;11.80;99.90;;;;;;5015363;28;20547;-67
2022/10/10 05:43:48;;;;;;;5.87;4.00;;;11.80;99.90;;;;;;5033402;28;20033;-67
2022/10/10 05:46:13;;;;;;;7.47;3.70;;;11.80;99.90;;;;;;5033128;28;20108;-67
2022/10/10 05:48:39;;;;;;;7.53;4.10;;;11.70;99.90;;;;;;5033322;28;20026;-67
2022/10/10 05:51:06;;;;;;;9.53;4.03;;;11.70;99.90;;;;;;5033763;28;20387;-67
2022/10/10 05:53:32;;;;;;;9.05;4.05;;;11.70;99.90;;;;;;5015315;28;20044;-67
2022/10/10 05:55:59;;;;;;;10.32;4.30;;;11.70;99.90;;;;;;5033466;28;20473;-67
2022/10/10 05:58:25;;;;;;;9.02;3.85;;;11.80;99.90;;;;;;5033627;28;20037;-67
2022/10/10 06:00:51;;;;;;;9.35;4.35;;;11.80;99.90;;;;;;5015209;28;20021;-67
2022/10/10 06:03:16;;;;;;;9.47;3.70;;;11.90;99.90;;;;;;5033751;28;20256;-66
2022/10/10 06:05:44;;;;;;;9.40;3.90;;;11.90;99.90;;;;;;5033685;28;20107;-67
2022/10/10 06:08:10;;;;;;;9.98;5.10;;;11.90;99.90;;;;;;5033018;28;20029;-67
2022/10/10 06:10:38;;;;;;;8.23;3.92;;;11.90;99.90;;;;;;5033481;28;20100;-66
2022/10/10 06:13:03;;;;;;;8.82;4.82;;;11.90;99.90;;;;;;5033960;28;20032;-66
2022/10/10 06:15:29;;;;;;;7.47;4.47;;;12.00;99.90;;;;;;5033107;28;20022;-66
2022/10/10 06:17:55;;;;;;;7.13;4.13;;;11.90;99.90;;;;;;5033067;28;20033;-67
2022/10/10 06:20:21;;;;;;;9.68;4.18;;;12.00;99.90;;;;;;5032378;28;20030;-67
2022/10/10 06:22:46;;;;;;;5.80;4.10;;;12.10;99.90;;;;;;5032957;28;20475;-67
2022/10/10 06:25:12;;;;;;;7.03;4.40;;;12.10;99.90;;;;;;5033011;28;20021;-67
2022/10/10 06:27:37;;;;;;;6.73;4.20;;;12.10;99.90;;;;;;5032712;28;20045;-67
2022/10/10 06:30:04;;;;;;;10.07;4.27;;;12.10;99.90;;;;;;5014682;28;20022;-67
2022/10/10 06:32:29;;;;;;;9.25;4.38;;;12.30;99.90;;;;;;5032907;28;20068;-67
2022/10/10 06:34:55;;;;;;;10.00;4.30;;;12.30;99.90;;;;;;5033147;28;20025;-67
2022/10/10 06:37:20;;;;;;;9.77;4.13;;;12.40;99.90;;;;;;5032967;28;20471;-66
2022/10/10 06:39:46;;;;;;;5.27;3.60;;;12.40;99.90;;;;;;5033068;28;20037;-67
2022/10/10 06:42:11;;;;;;;10.50;4.13;;;12.50;99.90;;;;;;5032741;28;20427;-67
2022/10/10 06:44:37;;;;;;;9.67;4.43;;;12.50;99.90;;;;;;5032680;28;20034;-67
2022/10/10 06:47:02;;;;;;;7.30;3.90;;;12.50;99.90;;;;;;5032793;28;20030;-67
2022/10/10 06:49:28;;;;;;;10.83;4.00;;;12.40;99.90;;;;;;5032074;28;20064;-67
2022/10/10 06:51:54;;;;;;;7.72;3.67;;;12.40;99.90;;;;;;5032508;28;20288;-67
2022/10/10 06:54:19;;;;;;;5.27;3.37;;;12.30;99.90;;;;;;5032728;28;20030;-69
2022/10/10 06:56:45;;;;;;;6.30;3.40;;;12.30;99.90;;;;;;5032418;28;20096;-67
2022/10/10 06:59:11;;;;;;;5.60;3.72;;;12.30;99.90;;;;;;5033039;28;20299;-67
2022/10/10 07:01:36;;;;;;;9.63;3.57;;;12.30;99.90;;;;;;5032381;28;20033;-67
2022/10/10 07:04:02;;;;;;;7.63;4.00;;;12.30;99.90;;;;;;5032837;28;20033;-67
2022/10/10 07:06:28;;;;;;;6.90;3.97;;;12.20;99.90;;;;;;5032758;28;20113;-67
2022/10/10 07:08:54;;;;;;;9.45;3.92;;;12.10;99.90;;;;;;5032631;28;20025;-66
2022/10/10 07:11:20;;;;;;;8.82;4.13;;;12.10;99.90;;;;;;5032350;28;20108;-68
2022/10/10 07:13:48;;;;;;;8.68;4.20;;;12.10;99.90;;;;;;5014352;28;20021;-66
2022/10/10 07:16:13;;;;;;;9.00;3.92;;;12.10;99.90;;;;;;5032039;28;20025;-67
2022/10/10 07:18:39;;;;;;;5.90;3.63;;;12.20;99.90;;;;;;5033604;28;20370;-67
2022/10/10 07:21:05;;;;;;;10.10;3.80;;;12.20;99.90;;;;;;5035494;28;20021;-67
2022/10/10 07:23:31;;;;;;;9.10;4.20;;;12.40;99.90;;;;;;5018400;28;20029;-68
2022/10/10 07:25:59;;;;;;;6.72;4.20;;;12.50;99.90;;;;;;5035673;28;20036;-66
2022/10/10 07:28:25;;;;;;;7.97;5.07;;;12.60;99.90;;;;;;5036240;28;20037;-67
2022/10/10 07:30:56;;;;;;;7.03;4.87;;;12.70;99.90;;;;;;5035692;28;20101;-67
2022/10/10 07:33:22;;;;;;;10.38;6.50;;;12.80;99.90;;;;;;5036146;28;20384;-67
2022/10/10 07:35:53;;;;;;;9.37;4.03;;;12.90;99.90;;;;;;5035810;28;20033;-67
2022/10/10 07:38:19;;;;;;;5.70;3.83;;;12.90;99.90;;;;;;5036158;28;20045;-67
2022/10/10 07:40:45;;;;;;;9.10;4.15;;;13.00;99.90;;;;;;5035918;28;20394;-67
2022/10/10 07:43:10;;;;;;;6.93;4.22;;;13.00;99.90;;;;;;5035722;28;20501;-66
2022/10/10 07:45:36;;;;;;;10.60;4.13;;;13.00;99.90;;;;;;5034569;28;20034;-67
2022/10/10 07:48:02;;;;;;;6.35;3.63;;;13.00;99.90;;;;;;5035430;28;20037;-67
2022/10/10 07:50:27;;;;;;;8.00;4.32;;;13.10;99.90;;;;;;5035649;28;20561;-67
2022/10/10 07:52:53;;;;;;;7.37;4.47;;;13.10;99.90;;;;;;5035681;28;20022;-66
2022/10/10 07:55:18;;;;;;;9.37;4.47;;;13.20;99.90;;;;;;5017771;28;20025;-67
2022/10/10 07:57:44;;;;;;;8.93;4.13;;;13.20;99.90;;;;;;5035410;28;20478;-69
2022/10/10 08:00:10;;;;;;;8.43;4.27;;;13.20;99.90;;;;;;5017304;28;20101;-67
2022/10/10 08:02:36;;;;;;;8.20;4.63;;;13.30;99.90;;;;;;5035198;28;20029;-67
2022/10/10 08:05:01;;;;;;;6.47;4.20;;;13.40;99.90;;;;;;5035766;28;20033;-66
2022/10/10 08:07:27;;;;;;;6.67;4.70;;;13.50;99.90;;;;;;5035063;28;20267;-66
2022/10/10 08:09:52;;;;;;;13.67;4.87;;;13.60;99.90;;;;;;5035105;28;20108;-66
2022/10/10 08:12:18;;;;;;;8.00;4.20;;;13.60;99.90;;;;;;5035189;28;20264;-67
2022/10/10 08:14:44;;;;;;;10.63;5.05;;;13.70;99.90;;;;;;5034769;28;20025;-66
2022/10/10 08:17:09;;;;;;;12.47;4.80;;;13.70;99.90;;;;;;5035381;28;20108;-66
2022/10/10 08:19:35;;;;;;;10.52;4.53;;;14.00;99.90;;;;;;5035158;28;20048;-66
2022/10/10 08:22:00;;;;;;;7.55;3.83;;;14.40;99.90;;;;;;5017371;28;20038;-66
2022/10/10 08:24:26;;;;;;;7.90;4.07;;;14.80;99.90;;;;;;5034984;28;20044;-67
2022/10/10 08:26:51;;;;;;;6.47;3.90;;;14.90;99.90;;;;;;5035204;28;20049;-66
2022/10/10 08:29:17;;;;;;;9.77;4.23;;;15.00;99.90;;;;;;5034763;28;20033;-67
2022/10/10 08:31:43;;;;;;;8.43;5.05;;;14.90;99.90;;;;;;5034290;28;20268;-68
2022/10/10 08:34:08;;;;;;;7.93;4.78;;;15.00;99.90;;;;;;5035134;28;20033;-67
2022/10/10 08:36:34;;;;;;;8.03;5.00;;;15.10;99.90;;;;;;5017002;28;20025;-66
2022/10/10 08:39:00;;;;;;;7.95;4.97;;;15.10;99.90;;;;;;5034769;28;20326;-67
2022/10/10 08:41:32;;;;;;;8.95;4.97;;;15.10;99.90;;;;;;5017287;28;20040;-68
2022/10/10 08:44:03;;;;;;;7.82;4.55;;;15.20;99.90;;;;;;5034780;28;20021;-66
2022/10/10 08:46:41;;;;;;;9.98;4.65;;;15.20;99.90;;;;;;5035556;28;20032;-66
2022/10/10 08:49:35;;;;;;;9.70;5.28;;;15.30;99.90;;;;;;5035104;28;20022;-67
2022/10/10 08:52:12;;;;;;;13.02;5.22;;;15.30;99.90;;;;;;5034747;28;20018;-67
2022/10/10 08:54:40;;;;;;;7.25;4.28;;;15.50;99.90;;;;;;5017278;28;20044;-66
2022/10/10 08:57:18;;;;;;;11.02;4.85;;;15.70;99.90;;;;;;5017035;28;20033;-67
2022/10/10 08:59:43;;;;;;;14.02;5.70;;;15.80;99.90;;;;;;5034606;28;20033;-68
2022/10/10 09:02:24;;;;;;;9.70;5.20;;;16.30;99.90;;;;;;5034321;28;20075;-68
2022/10/10 09:04:49;;;;;;;7.47;4.45;;;17.10;99.90;;;;;;5034859;28;20268;-68
2022/10/10 09:07:33;;;;;;;10.27;5.80;;;18.10;99.90;;;;;;5016456;28;20547;-68
2022/10/10 09:10:19;;;;;;;10.32;4.78;;;18.80;99.90;;;;;;5016393;28;20079;-68
2022/10/10 09:13:01;;;;;;;11.10;5.13;;;19.40;99.90;;;;;;5016434;28;20449;-68
2022/10/10 09:15:35;;;;;;;8.73;4.38;;;19.40;99.90;;;;;;5033890;28;20538;-68
2022/10/10 09:18:21;;;;;;;9.25;4.07;;;19.30;99.90;;;;;;5033912;28;20104;-67
2022/10/10 09:21:15;;;;;;;7.68;4.53;;;19.10;99.90;;;;;;5034471;28;20079;-67
2022/10/10 09:23:47;;;;;;;7.68;4.45;;;19.70;99.90;;;;;;5034235;28;20013;-67
2022/10/10 09:26:17;;;;;;;9.43;4.68;;;20.10;99.90;;;;;;5033729;28;20021;-67
2022/10/10 09:28:58;;;;;;;7.65;3.92;;;20.10;99.90;;;;;;5034145;28;20441;-67
2022/10/10 09:31:44;;;;;;;8.90;4.20;;;20.50;99.90;;;;;;5033371;28;20032;-67
2022/10/10 09:34:40;;;;;;;11.88;4.45;;;21.20;99.90;;;;;;5015810;28;20028;-68
2022/10/10 09:37:18;;;;;;;7.82;4.30;;;22.50;99.90;;;;;;5015643;28;20061;-67
2022/10/10 09:39:51;;;;;;;10.35;4.75;;;23.30;99.90;;;;;;5033632;28;20032;-66
2022/10/10 09:42:23;;;;;;;6.65;3.75;;;23.90;99.60;;;;;;5032480;28;20029;-68
2022/10/10 09:44:49;;;;;;;6.93;4.18;;;24.80;98.20;;;;;;5032479;28;20026;-67
2022/10/10 09:47:16;;;;;;;8.98;4.13;;;24.70;97.30;;;;;;5033449;28;20544;-68
2022/10/10 09:49:44;;;;;;;9.60;3.92;;;24.10;97.80;;;;;;5033826;28;20029;-67
2022/10/10 09:52:24;;;;;;;8.50;3.78;;;24.10;97.90;;;;;;5033628;28;20108;-68
2022/10/10 09:54:54;;;;;;;6.65;3.42;;;25.70;96.60;;;;;;5015269;28;20021;-67
2022/10/10 09:57:23;;;;;;;7.07;3.60;;;27.80;94.20;;;;;;5015779;28;20030;-68
2022/10/10 09:59:49;;;;;;;11.95;3.30;;;29.20;91.70;;;;;;5032896;28;20092;-68
2022/10/10 10:02:23;;;;;;;9.23;3.40;;;30.40;89.20;;;;;;5033031;28;20040;-68
2022/10/10 10:04:51;;;;;;;7.50;3.20;;;31.20;85.00;;;;;;5033345;28;20021;-68
2022/10/10 10:07:19;;;;;;;9.10;4.40;;;32.30;81.60;;;;;;5033026;28;20033;-68
2022/10/10 10:09:50;;;;;;;5.10;2.90;;;32.90;78.80;;;;;;5033314;28;20025;-67
2022/10/10 10:12:23;;;;;;;7.03;3.25;;;33.60;76.40;;;;;;5033229;28;20118;-67
2022/10/10 10:14:49;;;;;;;8.05;3.42;;;33.70;74.90;;;;;;5032718;28;20378;-67
2022/10/10 10:17:19;;;;;;;8.10;3.05;;;34.30;73.50;;;;;;5032851;28;20470;-67
2022/10/10 10:19:46;;;;;;;5.40;3.10;;;34.10;72.80;;;;;;5033106;28;20321;-68
2022/10/10 10:22:30;;;;;;;7.22;3.25;;;34.60;71.50;;;;;;5033105;28;20025;-67
2022/10/10 10:24:56;;;;;;;7.13;2.80;;;35.20;69.60;;;;;;5032839;28;20057;-67
2022/10/10 10:27:25;;;;;;;6.43;3.08;;;35.00;69.00;;;;;;5032992;28;20037;-67
2022/10/10 10:29:53;;;;;;;8.98;2.90;;;34.10;69.80;;;;;;5032725;28;20033;-67
2022/10/10 10:32:35;;;;;;;6.47;3.10;;;33.60;70.50;;;;;;5032890;28;20052;-67
2022/10/10 10:35:25;;;;;;;6.97;2.90;;;33.60;70.50;;;;;;5033031;28;20021;-67
2022/10/10 10:38:10;;;;;;;6.25;2.97;;;33.30;70.90;;;;;;5015236;28;20402;-68
2022/10/10 10:40:39;;;;;;;7.95;3.50;;;33.30;71.10;;;;;;5033188;28;20033;-68
2022/10/10 10:43:21;;;;;;;6.85;3.08;;;33.90;70.30;;;;;;5015092;28;20017;-68
2022/10/10 10:45:55;;;;;;;6.28;3.03;;;34.20;69.50;;;;;;5031829;28;20068;-67
2022/10/10 10:48:25;;;;;;;8.45;3.53;;;34.60;68.90;;;;;;5015097;28;20018;-67
2022/10/10 10:51:05;;;;;;;6.28;2.92;;;34.50;68.70;;;;;;5032878;28;20164;-68
2022/10/10 10:53:57;;;;;;;7.70;3.10;;;32.60;70.50;;;;;;5015782;28;20017;-68
2022/10/10 10:56:32;;;;;;;5.45;3.17;;;30.10;74.40;;;;;;5036858;28;20026;-68
2022/10/10 10:59:24;;;;;;;5.78;2.92;;;27.70;78.80;;;;;;5036727;28;20052;-68
2022/10/10 11:02:07;;;;;;;5.65;2.90;;;26.20;83.00;;;;;;5036283;28;20021;-67
2022/10/10 11:04:52;;;;;;;12.57;2.88;;;24.90;87.10;;;;;;5036437;28;20026;-67
2022/10/10 11:07:21;;;;;;;6.53;3.20;;;23.60;90.60;;;;;;5036201;28;20509;-67
2022/10/10 11:09:55;;;;;;;4.20;2.70;;;23.00;92.40;;;;;;5036142;28;20033;-67
2022/10/10 11:12:50;;;;;;;8.40;3.10;;;22.60;93.50;;;;;;5036410;28;20072;-67
2022/10/10 11:15:44;;;;;;;6.05;3.10;;;22.20;95.10;;;;;;4980297;28;20042;-66
2022/10/10 11:18:25;;;;;;;3.95;2.72;;;22.10;95.70;;;;;;5016384;28;20018;-68
2022/10/10 11:21:15;;;;;;;10.35;2.75;;;22.00;95.70;;;;;;5016900;28;20418;-68
2022/10/10 11:23:56;;;;;;;10.55;3.38;;;21.80;96.20;;;;;;5017034;28;20014;-68
2022/10/10 11:26:29;;;;;;;5.00;2.55;;;21.50;96.80;;;;;;5016526;28;20029;-67
2022/10/10 11:29:14;;;;;;;7.55;2.67;;;21.50;97.40;;;;;;5017056;28;20026;-68
2022/10/10 11:31:59;;;;;;;7.15;2.88;;;21.30;97.70;;;;;;5016015;28;20033;-67
2022/10/10 11:34:31;;;;;;;10.77;3.08;;;21.10;98.50;;;;;;5016673;28;20020;-68
2022/10/10 11:37:02;;;;;;;10.55;3.85;;;21.10;98.70;;;;;;5016645;28;20030;-67
2022/10/10 11:39:53;;;;;;;10.45;3.22;;;21.10;99.10;;;;;;5016448;28;20030;-67
2022/10/10 11:42:25;;;;;;;10.02;3.60;;;21.30;99.50;;;;;;5016271;28;20041;-67
2022/10/10 11:45:03;;;;;;;13.05;3.00;;;21.30;99.40;;;;;;5023929;28;20489;-67
2022/10/10 11:48:02;;;;;;;8.55;3.15;;;21.40;99.10;;;;;;5035797;28;20040;-68
2022/10/10 11:50:32;;;;;;;9.65;3.53;;;21.40;99.00;;;;;;5033299;28;20037;-68
2022/10/10 11:53:04;;;;;;;6.70;2.90;;;21.40;98.90;;;;;;5004858;28;20037;-67
2022/10/10 11:55:40;;;;;;;14.05;3.42;;;21.50;99.10;;;;;;5015127;28;20030;-67
2022/10/10 11:58:05;;;;;;;9.60;2.88;;;21.50;98.30;;;;;;5015849;28;20042;-67
2022/10/10 12:00:40;;;;;;;10.57;3.28;;;21.50;98.30;;;;;;5015645;28;20382;-67
2022/10/10 12:03:07;;;;;;;7.68;2.90;;;21.50;98.70;;;;;;4997985;28;20040;-67
2022/10/10 12:05:37;;;;;;;8.27;3.20;;;21.60;98.70;;;;;;4997602;28;20022;-67
2022/10/10 12:08:11;;;;;;;7.53;2.97;;;21.50;98.70;;;;;;5015525;28;20018;-67
2022/10/10 12:10:42;;;;;;;8.27;3.47;;;21.60;98.60;;;;;;5015676;28;20483;-68
2022/10/10 12:13:36;;;;;;;12.35;4.20;;;21.60;98.80;;;;;;5015366;28;20018;-67
2022/10/10 12:16:06;;;;;;;8.98;3.13;;;21.70;98.90;;;;;;5025343;28;20386;-67
2022/10/10 12:18:38;;;;;;;6.70;3.03;;;21.70;98.80;;;;;;5035132;28;20026;-68
2022/10/10 12:21:10;;;;;;;10.55;3.42;;;21.70;98.60;;;;;;5035167;28;20056;-67
2022/10/10 12:23:36;;;;;;;7.22;2.55;;;21.70;98.20;;;;;;5034625;28;20080;-67
2022/10/10 12:26:02;;;;;;;8.25;2.90;;;21.80;98.40;;;;;;5035078;28;20107;-67
2022/10/10 12:28:55;;;;;;;6.90;2.95;;;21.90;98.10;;;;;;5017398;28;20477;-67
2022/10/10 12:31:33;;;;;;;8.38;2.72;;;21.70;98.30;;;;;;5034478;28;20509;-66
2022/10/10 12:34:02;;;;;;;10.52;2.78;;;21.70;97.80;;;;;;5034865;28;20462;-67
2022/10/10 12:36:27;;;;;;;9.60;3.60;;;21.70;97.60;;;;;;5034707;28;20075;-68
2022/10/10 12:39:05;;;;;;;10.18;3.33;;;21.70;97.50;;;;;;5035057;28;20065;-66
2022/10/10 12:41:49;;;;;;;9.88;2.75;;;21.80;97.10;;;;;;5016785;28;20030;-67
2022/10/10 12:44:21;;;;;;;9.23;3.35;;;21.90;97.40;;;;;;5034527;28;20390;-68
2022/10/10 12:47:06;;;;;;;13.40;3.90;;;21.90;97.70;;;;;;5034192;28;20029;-66
2022/10/10 12:49:34;;;;;;;7.93;2.75;;;22.00;97.60;;;;;;5016322;28;20079;-67
2022/10/10 12:52:10;;;;;;;9.60;3.10;;;22.10;97.40;;;;;;5034658;28;20025;-67
2022/10/10 12:54:40;;;;;;;10.15;3.03;;;22.10;97.10;;;;;;5034575;28;20045;-67
2022/10/10 12:57:36;;;;;;;9.73;2.53;;;22.10;97.30;;;;;;5034194;28;20099;-68
2022/10/10 13:00:13;;;;;;;10.15;2.85;;;22.20;97.00;;;;;;5023885;28;20029;-67
2022/10/10 13:02:43;;;;;;;10.57;3.75;;;22.10;97.10;;;;;;5034571;28;20426;-68